Main page
METAR-TAF:

METAR-TAF

Airports :

Macaé Airport

Macaé, Rio de Janeiro, Brazil

latitude: 22-21S, longitude: 041-46W, elevation: 2 m

Current weather observation

The report was made 1 hour and 13 minutes ago, at 12:00 UTC
Wind 4 kt from the South
Temperature 32°C
Humidity 56%
Pressure 1015 hPa
Visibility 10 km or more
no clouds below 1500 m and no cumulonimbus

METAR: SBME 261200Z 18004KT CAVOK 32/22 Q1015

Time: 10:13 (13:13 UTC)

Forecast

The report was made 4 hours and 13 minutes ago, at 09:00 UTC
Forecast valid from 26 at 12 UTC to 26 at 24 UTC
Wind 5 kt from the North/Northeast
Visibility 10 km or more
Scattered clouds at a height of 3000 ft
Becoming
from 26 at 13 UTC to 26 at 15 UTC
Wind 13 kt from the East/Southeast
Becoming
from 26 at 21 UTC to 26 at 23 UTC
Wind 6 kt from the East

TAF: SBME 260900Z 2612/2624 02005KT 9999 SCT030 TX33/2617Z TN25/2624Z BECMG 2613/2615 11013KT BECMG 2621/2623 09006KT RMK PGU

Weather observations and forecasts of more than 4000 airports (METAR and TAF reports).

The available stations are represented by yellow and red dots on the map.

Hover mouse over dot to see the name of the station.

Then click to see weather observations and forecasts.

To change the map : click on the green buttons with a black cross to zoom in, on the green button with a dash to zoom out, or on the green arrows for adjacent maps.


METAR-TAF: